sensor_id;sensor_type;location;lat;lon;timestamp;P1;durP1;ratioP1;P2;durP2;ratioP2
5867;SDS011;2960;49.142;7.768;2024-01-15T00:01:13;15.10;;;5.37;;
5867;SDS011;2960;49.142;7.768;2024-01-15T00:03:42;17.20;;;5.63;;
5867;SDS011;2960;49.142;7.768;2024-01-15T00:06:09;17.50;;;5.80;;
5867;SDS011;2960;49.142;7.768;2024-01-15T00:08:37;14.60;;;5.13;;
5867;SDS011;2960;49.142;7.768;2024-01-15T00:11:04;13.50;;;4.77;;
5867;SDS011;2960;49.142;7.768;2024-01-15T00:13:31;13.47;;;4.30;;
5867;SDS011;2960;49.142;7.768;2024-01-15T00:15:58;16.00;;;5.13;;
5867;SDS011;2960;49.142;7.768;2024-01-15T00:18:26;15.40;;;4.67;;
5867;SDS011;2960;49.142;7.768;2024-01-15T00:20:54;12.93;;;4.70;;
5867;SDS011;2960;49.142;7.768;2024-01-15T00:23:22;14.77;;;4.53;;
5867;SDS011;2960;49.142;7.768;2024-01-15T00:25:50;14.10;;;4.47;;
5867;SDS011;2960;49.142;7.768;2024-01-15T00:28:18;15.20;;;4.67;;
5867;SDS011;2960;49.142;7.768;2024-01-15T00:30:45;17.30;;;4.40;;
5867;SDS011;2960;49.142;7.768;2024-01-15T00:33:12;13.57;;;3.57;;
5867;SDS011;2960;49.142;7.768;2024-01-15T00:35:39;13.53;;;4.30;;
5867;SDS011;2960;49.142;7.768;2024-01-15T00:38:08;13.40;;;4.17;;
5867;SDS011;2960;49.142;7.768;2024-01-15T00:40:35;15.27;;;5.00;;
5867;SDS011;2960;49.142;7.768;2024-01-15T00:43:02;13.17;;;4.23;;
5867;SDS011;2960;49.142;7.768;2024-01-15T00:45:32;13.50;;;4.30;;
5867;SDS011;2960;49.142;7.768;2024-01-15T00:47:59;15.10;;;4.70;;
5867;SDS011;2960;49.142;7.768;2024-01-15T00:50:26;15.50;;;4.80;;
5867;SDS011;2960;49.142;7.768;2024-01-15T00:52:53;15.40;;;4.77;;
5867;SDS011;2960;49.142;7.768;2024-01-15T00:55:22;14.90;;;3.67;;
5867;SDS011;2960;49.142;7.768;2024-01-15T00:57:49;15.70;;;4.97;;
5867;SDS011;2960;49.142;7.768;2024-01-15T01:00:16;15.97;;;4.90;;
5867;SDS011;2960;49.142;7.768;2024-01-15T01:02:43;14.13;;;4.57;;
5867;SDS011;2960;49.142;7.768;2024-01-15T01:05:10;15.00;;;4.40;;
5867;SDS011;2960;49.142;7.768;2024-01-15T01:07:38;13.03;;;4.17;;
5867;SDS011;2960;49.142;7.768;2024-01-15T01:10:05;15.10;;;4.37;;
5867;SDS011;2960;49.142;7.768;2024-01-15T01:12:34;11.63;;;3.97;;
5867;SDS011;2960;49.142;7.768;2024-01-15T01:15:01;12.77;;;4.50;;
5867;SDS011;2960;49.142;7.768;2024-01-15T01:17:29;15.33;;;4.80;;
5867;SDS011;2960;49.142;7.768;2024-01-15T01:19:57;13.47;;;5.40;;
5867;SDS011;2960;49.142;7.768;2024-01-15T01:22:24;15.73;;;4.30;;
5867;SDS011;2960;49.142;7.768;2024-01-15T01:24:51;12.53;;;4.40;;
5867;SDS011;2960;49.142;7.768;2024-01-15T01:27:18;12.80;;;4.10;;
5867;SDS011;2960;49.142;7.768;2024-01-15T01:29:47;14.57;;;4.10;;
5867;SDS011;2960;49.142;7.768;2024-01-15T01:32:14;13.20;;;3.93;;
5867;SDS011;2960;49.142;7.768;2024-01-15T01:34:41;14.10;;;4.53;;
5867;SDS011;2960;49.142;7.768;2024-01-15T01:37:08;12.27;;;3.57;;
5867;SDS011;2960;49.142;7.768;2024-01-15T01:39:37;15.03;;;4.87;;
5867;SDS011;2960;49.142;7.768;2024-01-15T01:42:04;14.00;;;4.40;;
5867;SDS011;2960;49.142;7.768;2024-01-15T01:44:32;13.90;;;4.87;;
5867;SDS011;2960;49.142;7.768;2024-01-15T01:47:01;13.17;;;4.00;;
5867;SDS011;2960;49.142;7.768;2024-01-15T01:49:28;16.30;;;4.20;;
5867;SDS011;2960;49.142;7.768;2024-01-15T01:51:57;12.20;;;3.97;;
5867;SDS011;2960;49.142;7.768;2024-01-15T01:54:26;14.03;;;4.00;;
5867;SDS011;2960;49.142;7.768;2024-01-15T01:56:56;13.10;;;4.00;;
5867;SDS011;2960;49.142;7.768;2024-01-15T01:59:23;11.37;;;3.40;;
5867;SDS011;2960;49.142;7.768;2024-01-15T02:01:54;10.83;;;3.80;;
5867;SDS011;2960;49.142;7.768;2024-01-15T02:04:23;13.20;;;4.03;;
5867;SDS011;2960;49.142;7.768;2024-01-15T02:06:51;13.57;;;3.70;;
5867;SDS011;2960;49.142;7.768;2024-01-15T02:09:18;13.47;;;4.17;;
5867;SDS011;2960;49.142;7.768;2024-01-15T02:11:46;11.40;;;3.30;;
5867;SDS011;2960;49.142;7.768;2024-01-15T02:14:13;14.37;;;4.10;;
5867;SDS011;2960;49.142;7.768;2024-01-15T02:16:40;11.57;;;3.70;;
5867;SDS011;2960;49.142;7.768;2024-01-15T02:19:07;16.03;;;5.30;;
5867;SDS011;2960;49.142;7.768;2024-01-15T02:21:43;12.87;;;4.17;;
5867;SDS011;2960;49.142;7.768;2024-01-15T02:24:11;13.33;;;3.53;;
5867;SDS011;2960;49.142;7.768;2024-01-15T02:26:39;16.37;;;4.30;;
5867;SDS011;2960;49.142;7.768;2024-01-15T02:29:07;13.90;;;4.50;;
5867;SDS011;2960;49.142;7.768;2024-01-15T02:31:34;13.03;;;3.93;;
5867;SDS011;2960;49.142;7.768;2024-01-15T02:34:02;12.40;;;3.70;;
5867;SDS011;2960;49.142;7.768;2024-01-15T02:36:29;12.47;;;4.17;;
5867;SDS011;2960;49.142;7.768;2024-01-15T02:38:57;13.80;;;3.60;;
5867;SDS011;2960;49.142;7.768;2024-01-15T02:41:27;11.00;;;3.90;;
5867;SDS011;2960;49.142;7.768;2024-01-15T02:43:55;15.73;;;4.03;;
5867;SDS011;2960;49.142;7.768;2024-01-15T02:46:22;12.70;;;4.10;;
5867;SDS011;2960;49.142;7.768;2024-01-15T02:48:49;14.87;;;4.33;;
5867;SDS011;2960;49.142;7.768;2024-01-15T02:51:16;13.33;;;3.80;;
5867;SDS011;2960;49.142;7.768;2024-01-15T02:53:43;12.50;;;4.07;;
5867;SDS011;2960;49.142;7.768;2024-01-15T02:56:11;11.43;;;3.30;;
5867;SDS011;2960;49.142;7.768;2024-01-15T02:58:39;15.00;;;4.47;;
5867;SDS011;2960;49.142;7.768;2024-01-15T03:01:06;14.53;;;4.57;;
5867;SDS011;2960;49.142;7.768;2024-01-15T03:03:33;13.23;;;3.60;;
5867;SDS011;2960;49.142;7.768;2024-01-15T03:06:01;15.20;;;4.43;;
5867;SDS011;2960;49.142;7.768;2024-01-15T03:08:29;13.53;;;4.17;;
5867;SDS011;2960;49.142;7.768;2024-01-15T03:10:56;10.63;;;3.60;;
5867;SDS011;2960;49.142;7.768;2024-01-15T03:13:24;17.20;;;4.43;;
5867;SDS011;2960;49.142;7.768;2024-01-15T03:15:53;11.90;;;4.10;;
5867;SDS011;2960;49.142;7.768;2024-01-15T03:18:21;14.80;;;4.30;;
5867;SDS011;2960;49.142;7.768;2024-01-15T03:20:48;11.00;;;3.53;;
5867;SDS011;2960;49.142;7.768;2024-01-15T03:23:15;10.43;;;3.77;;
5867;SDS011;2960;49.142;7.768;2024-01-15T03:25:42;12.93;;;4.03;;
5867;SDS011;2960;49.142;7.768;2024-01-15T03:28:09;13.60;;;4.60;;
5867;SDS011;2960;49.142;7.768;2024-01-15T03:30:37;13.03;;;4.30;;
5867;SDS011;2960;49.142;7.768;2024-01-15T03:33:05;13.27;;;4.00;;
5867;SDS011;2960;49.142;7.768;2024-01-15T03:35:32;11.80;;;4.13;;
5867;SDS011;2960;49.142;7.768;2024-01-15T03:37:59;14.17;;;4.03;;
5867;SDS011;2960;49.142;7.768;2024-01-15T03:40:26;11.93;;;4.27;;
5867;SDS011;2960;49.142;7.768;2024-01-15T03:42:53;14.67;;;4.80;;
5867;SDS011;2960;49.142;7.768;2024-01-15T03:45:20;17.27;;;5.17;;
5867;SDS011;2960;49.142;7.768;2024-01-15T03:47:47;13.40;;;3.90;;
5867;SDS011;2960;49.142;7.768;2024-01-15T03:50:16;16.87;;;5.60;;
5867;SDS011;2960;49.142;7.768;2024-01-15T03:52:43;13.43;;;4.80;;
5867;SDS011;2960;49.142;7.768;2024-01-15T03:55:10;13.80;;;4.37;;
5867;SDS011;2960;49.142;7.768;2024-01-15T03:57:37;13.77;;;4.17;;
5867;SDS011;2960;49.142;7.768;2024-01-15T04:00:04;10.97;;;4.07;;
5867;SDS011;2960;49.142;7.768;2024-01-15T04:02:33;15.67;;;4.27;;
5867;SDS011;2960;49.142;7.768;2024-01-15T04:05:00;14.17;;;3.97;;
5867;SDS011;2960;49.142;7.768;2024-01-15T04:07:29;14.13;;;4.27;;
5867;SDS011;2960;49.142;7.768;2024-01-15T04:09:56;14.63;;;4.10;;
5867;SDS011;2960;49.142;7.768;2024-01-15T04:12:23;11.00;;;3.57;;
5867;SDS011;2960;49.142;7.768;2024-01-15T04:14:50;13.77;;;4.47;;
5867;SDS011;2960;49.142;7.768;2024-01-15T04:17:17;14.97;;;4.63;;
5867;SDS011;2960;49.142;7.768;2024-01-15T04:19:44;9.43;;;3.27;;
5867;SDS011;2960;49.142;7.768;2024-01-15T04:22:13;13.53;;;4.27;;
5867;SDS011;2960;49.142;7.768;2024-01-15T04:24:41;12.83;;;4.00;;
5867;SDS011;2960;49.142;7.768;2024-01-15T04:27:08;13.53;;;4.30;;
5867;SDS011;2960;49.142;7.768;2024-01-15T04:29:37;14.57;;;4.80;;
5867;SDS011;2960;49.142;7.768;2024-01-15T04:32:04;12.23;;;4.17;;
5867;SDS011;2960;49.142;7.768;2024-01-15T04:34:32;11.07;;;3.73;;
5867;SDS011;2960;49.142;7.768;2024-01-15T04:36:59;13.10;;;4.10;;
5867;SDS011;2960;49.142;7.768;2024-01-15T04:39:26;12.40;;;4.20;;
5867;SDS011;2960;49.142;7.768;2024-01-15T04:41:54;14.20;;;3.70;;
5867;SDS011;2960;49.142;7.768;2024-01-15T04:44:21;12.53;;;3.80;;
5867;SDS011;2960;49.142;7.768;2024-01-15T04:46:49;11.37;;;3.27;;
5867;SDS011;2960;49.142;7.768;2024-01-15T04:49:17;13.90;;;4.40;;
5867;SDS011;2960;49.142;7.768;2024-01-15T04:51:46;12.77;;;3.83;;
5867;SDS011;2960;49.142;7.768;2024-01-15T04:54:13;11.50;;;4.20;;
5867;SDS011;2960;49.142;7.768;2024-01-15T04:56:42;11.70;;;3.87;;
5867;SDS011;2960;49.142;7.768;2024-01-15T04:59:11;14.03;;;3.80;;
5867;SDS011;2960;49.142;7.768;2024-01-15T05:01:39;14.10;;;4.13;;
5867;SDS011;2960;49.142;7.768;2024-01-15T05:04:06;14.57;;;4.57;;
5867;SDS011;2960;49.142;7.768;2024-01-15T05:06:33;11.10;;;3.80;;
5867;SDS011;2960;49.142;7.768;2024-01-15T05:09:00;13.47;;;4.00;;
5867;SDS011;2960;49.142;7.768;2024-01-15T05:11:29;11.77;;;3.60;;
5867;SDS011;2960;49.142;7.768;2024-01-15T05:13:56;11.90;;;3.93;;
5867;SDS011;2960;49.142;7.768;2024-01-15T05:16:24;11.77;;;4.00;;
5867;SDS011;2960;49.142;7.768;2024-01-15T05:18:51;11.97;;;3.50;;
5867;SDS011;2960;49.142;7.768;2024-01-15T05:21:21;12.20;;;3.70;;
5867;SDS011;2960;49.142;7.768;2024-01-15T05:23:48;10.77;;;3.60;;
5867;SDS011;2960;49.142;7.768;2024-01-15T05:26:16;13.70;;;4.03;;
5867;SDS011;2960;49.142;7.768;2024-01-15T05:28:43;10.37;;;3.63;;
5867;SDS011;2960;49.142;7.768;2024-01-15T05:31:10;12.67;;;3.93;;
5867;SDS011;2960;49.142;7.768;2024-01-15T05:33:38;13.00;;;3.80;;
5867;SDS011;2960;49.142;7.768;2024-01-15T05:36:06;11.57;;;3.90;;
5867;SDS011;2960;49.142;7.768;2024-01-15T05:38:33;12.17;;;4.03;;
5867;SDS011;2960;49.142;7.768;2024-01-15T05:41:00;14.10;;;3.80;;
5867;SDS011;2960;49.142;7.768;2024-01-15T05:43:27;12.10;;;3.50;;
5867;SDS011;2960;49.142;7.768;2024-01-15T05:45:54;10.80;;;3.40;;
5867;SDS011;2960;49.142;7.768;2024-01-15T05:48:21;14.70;;;4.80;;
5867;SDS011;2960;49.142;7.768;2024-01-15T05:50:50;13.07;;;4.30;;
5867;SDS011;2960;49.142;7.768;2024-01-15T05:53:17;12.40;;;3.80;;
5867;SDS011;2960;49.142;7.768;2024-01-15T05:55:45;13.07;;;4.27;;
5867;SDS011;2960;49.142;7.768;2024-01-15T05:58:12;11.00;;;3.60;;
5867;SDS011;2960;49.142;7.768;2024-01-15T06:00:39;13.27;;;3.90;;
5867;SDS011;2960;49.142;7.768;2024-01-15T06:03:06;11.53;;;3.87;;
5867;SDS011;2960;49.142;7.768;2024-01-15T06:05:33;12.57;;;4.13;;
5867;SDS011;2960;49.142;7.768;2024-01-15T06:08:02;12.73;;;3.73;;
5867;SDS011;2960;49.142;7.768;2024-01-15T06:10:29;11.77;;;3.60;;
5867;SDS011;2960;49.142;7.768;2024-01-15T06:12:56;15.80;;;4.03;;
5867;SDS011;2960;49.142;7.768;2024-01-15T06:15:23;11.63;;;3.87;;
5867;SDS011;2960;49.142;7.768;2024-01-15T06:17:50;11.83;;;3.57;;
5867;SDS011;2960;49.142;7.768;2024-01-15T06:20:17;14.43;;;4.07;;
5867;SDS011;2960;49.142;7.768;2024-01-15T06:22:44;12.20;;;3.67;;
5867;SDS011;2960;49.142;7.768;2024-01-15T06:25:13;12.97;;;3.77;;
5867;SDS011;2960;49.142;7.768;2024-01-15T06:27:40;11.00;;;3.50;;
5867;SDS011;2960;49.142;7.768;2024-01-15T06:30:08;13.13;;;4.20;;
5867;SDS011;2960;49.142;7.768;2024-01-15T06:32:36;16.70;;;3.90;;
5867;SDS011;2960;49.142;7.768;2024-01-15T06:35:04;12.00;;;3.57;;
5867;SDS011;2960;49.142;7.768;2024-01-15T06:37:32;11.87;;;4.17;;
5867;SDS011;2960;49.142;7.768;2024-01-15T06:39:59;10.90;;;3.57;;
5867;SDS011;2960;49.142;7.768;2024-01-15T06:42:27;10.37;;;3.57;;
5867;SDS011;2960;49.142;7.768;2024-01-15T06:44:54;12.10;;;4.10;;
5867;SDS011;2960;49.142;7.768;2024-01-15T06:47:21;10.90;;;3.80;;
5867;SDS011;2960;49.142;7.768;2024-01-15T06:49:49;10.43;;;3.33;;
5867;SDS011;2960;49.142;7.768;2024-01-15T06:52:17;12.30;;;3.90;;
5867;SDS011;2960;49.142;7.768;2024-01-15T06:54:44;13.57;;;4.20;;
5867;SDS011;2960;49.142;7.768;2024-01-15T06:57:11;13.87;;;4.20;;
5867;SDS011;2960;49.142;7.768;2024-01-15T06:59:39;11.53;;;4.03;;
5867;SDS011;2960;49.142;7.768;2024-01-15T07:02:07;11.10;;;4.00;;
5867;SDS011;2960;49.142;7.768;2024-01-15T07:04:34;13.50;;;4.50;;
5867;SDS011;2960;49.142;7.768;2024-01-15T07:07:01;12.80;;;4.40;;
5867;SDS011;2960;49.142;7.768;2024-01-15T07:09:28;11.43;;;3.53;;
5867;SDS011;2960;49.142;7.768;2024-01-15T07:11:55;13.60;;;4.20;;
5867;SDS011;2960;49.142;7.768;2024-01-15T07:14:23;12.20;;;3.93;;
5867;SDS011;2960;49.142;7.768;2024-01-15T07:16:51;13.03;;;4.50;;
5867;SDS011;2960;49.142;7.768;2024-01-15T07:19:18;12.70;;;4.37;;
5867;SDS011;2960;49.142;7.768;2024-01-15T07:21:45;12.10;;;4.37;;
5867;SDS011;2960;49.142;7.768;2024-01-15T07:24:12;13.10;;;4.30;;
5867;SDS011;2960;49.142;7.768;2024-01-15T07:26:39;11.30;;;4.20;;
5867;SDS011;2960;49.142;7.768;2024-01-15T07:29:06;18.10;;;4.90;;
5867;SDS011;2960;49.142;7.768;2024-01-15T07:31:34;12.47;;;3.53;;
5867;SDS011;2960;49.142;7.768;2024-01-15T07:34:02;13.80;;;4.03;;
5867;SDS011;2960;49.142;7.768;2024-01-15T07:36:29;14.67;;;4.50;;
5867;SDS011;2960;49.142;7.768;2024-01-15T07:38:56;11.57;;;3.83;;
5867;SDS011;2960;49.142;7.768;2024-01-15T07:41:23;12.77;;;4.43;;
5867;SDS011;2960;49.142;7.768;2024-01-15T07:43:50;13.10;;;4.00;;
5867;SDS011;2960;49.142;7.768;2024-01-15T07:46:17;11.30;;;4.10;;
5867;SDS011;2960;49.142;7.768;2024-01-15T07:48:44;11.67;;;4.10;;
5867;SDS011;2960;49.142;7.768;2024-01-15T07:51:13;14.37;;;4.17;;
5867;SDS011;2960;49.142;7.768;2024-01-15T07:53:40;12.43;;;4.57;;
5867;SDS011;2960;49.142;7.768;2024-01-15T07:56:07;12.20;;;4.17;;
5867;SDS011;2960;49.142;7.768;2024-01-15T07:58:34;12.33;;;4.20;;
5867;SDS011;2960;49.142;7.768;2024-01-15T08:01:01;12.33;;;4.40;;
5867;SDS011;2960;49.142;7.768;2024-01-15T08:03:29;15.13;;;5.53;;
5867;SDS011;2960;49.142;7.768;2024-01-15T08:05:56;13.43;;;4.47;;
5867;SDS011;2960;49.142;7.768;2024-01-15T08:08:25;14.07;;;5.40;;
5867;SDS011;2960;49.142;7.768;2024-01-15T08:10:52;16.50;;;4.97;;
5867;SDS011;2960;49.142;7.768;2024-01-15T08:13:20;13.73;;;4.37;;
5867;SDS011;2960;49.142;7.768;2024-01-15T08:15:47;15.63;;;5.13;;
5867;SDS011;2960;49.142;7.768;2024-01-15T08:18:15;12.23;;;4.30;;
5867;SDS011;2960;49.142;7.768;2024-01-15T08:20:42;11.63;;;4.40;;
5867;SDS011;2960;49.142;7.768;2024-01-15T08:23:09;17.70;;;5.17;;
5867;SDS011;2960;49.142;7.768;2024-01-15T08:25:37;13.00;;;4.17;;
5867;SDS011;2960;49.142;7.768;2024-01-15T08:28:04;15.77;;;4.87;;
5867;SDS011;2960;49.142;7.768;2024-01-15T08:30:33;14.07;;;4.90;;
5867;SDS011;2960;49.142;7.768;2024-01-15T08:33:00;15.23;;;5.50;;
5867;SDS011;2960;49.142;7.768;2024-01-15T08:35:27;16.20;;;5.20;;
5867;SDS011;2960;49.142;7.768;2024-01-15T08:37:54;13.13;;;4.90;;
5867;SDS011;2960;49.142;7.768;2024-01-15T08:40:23;11.80;;;4.57;;
5867;SDS011;2960;49.142;7.768;2024-01-15T08:42:52;15.53;;;5.43;;
5867;SDS011;2960;49.142;7.768;2024-01-15T08:45:19;13.90;;;5.50;;
5867;SDS011;2960;49.142;7.768;2024-01-15T08:47:46;17.30;;;5.67;;
5867;SDS011;2960;49.142;7.768;2024-01-15T08:50:14;12.87;;;4.60;;
5867;SDS011;2960;49.142;7.768;2024-01-15T08:52:41;16.57;;;5.77;;
5867;SDS011;2960;49.142;7.768;2024-01-15T08:55:08;19.93;;;5.20;;
5867;SDS011;2960;49.142;7.768;2024-01-15T08:57:35;15.60;;;5.50;;
5867;SDS011;2960;49.142;7.768;2024-01-15T09:00:04;14.07;;;4.97;;
5867;SDS011;2960;49.142;7.768;2024-01-15T09:02:33;14.17;;;5.73;;
5867;SDS011;2960;49.142;7.768;2024-01-15T09:05:01;12.60;;;4.73;;
5867;SDS011;2960;49.142;7.768;2024-01-15T09:07:29;12.70;;;4.60;;
5867;SDS011;2960;49.142;7.768;2024-01-15T09:09:56;14.30;;;5.20;;
5867;SDS011;2960;49.142;7.768;2024-01-15T09:12:24;16.07;;;4.90;;
5867;SDS011;2960;49.142;7.768;2024-01-15T09:14:51;12.93;;;5.23;;
5867;SDS011;2960;49.142;7.768;2024-01-15T09:17:20;15.83;;;4.97;;
5867;SDS011;2960;49.142;7.768;2024-01-15T09:19:48;13.27;;;4.60;;
5867;SDS011;2960;49.142;7.768;2024-01-15T09:22:16;11.10;;;4.43;;
5867;SDS011;2960;49.142;7.768;2024-01-15T09:24:43;12.47;;;4.27;;
5867;SDS011;2960;49.142;7.768;2024-01-15T09:27:11;16.00;;;4.70;;
5867;SDS011;2960;49.142;7.768;2024-01-15T09:29:38;12.40;;;4.60;;
5867;SDS011;2960;49.142;7.768;2024-01-15T09:32:07;12.07;;;4.10;;
5867;SDS011;2960;49.142;7.768;2024-01-15T09:34:35;12.47;;;4.70;;
5867;SDS011;2960;49.142;7.768;2024-01-15T09:37:03;12.40;;;4.23;;
5867;SDS011;2960;49.142;7.768;2024-01-15T09:39:30;12.90;;;4.40;;
5867;SDS011;2960;49.142;7.768;2024-01-15T09:41:58;10.60;;;4.10;;
5867;SDS011;2960;49.142;7.768;2024-01-15T09:44:25;10.93;;;3.67;;
5867;SDS011;2960;49.142;7.768;2024-01-15T09:46:55;11.33;;;4.30;;
5867;SDS011;2960;49.142;7.768;2024-01-15T09:49:22;10.70;;;3.70;;
5867;SDS011;2960;49.142;7.768;2024-01-15T09:51:51;11.03;;;3.97;;
5867;SDS011;2960;49.142;7.768;2024-01-15T09:54:18;12.30;;;4.20;;
5867;SDS011;2960;49.142;7.768;2024-01-15T09:56:46;11.63;;;4.00;;
5867;SDS011;2960;49.142;7.768;2024-01-15T09:59:14;15.37;;;4.00;;
5867;SDS011;2960;49.142;7.768;2024-01-15T10:01:43;9.60;;;3.53;;
5867;SDS011;2960;49.142;7.768;2024-01-15T10:04:13;10.80;;;3.20;;
5867;SDS011;2960;49.142;7.768;2024-01-15T10:06:40;15.20;;;4.70;;
5867;SDS011;2960;49.142;7.768;2024-01-15T10:09:14;10.80;;;3.50;;
5867;SDS011;2960;49.142;7.768;2024-01-15T10:11:41;9.80;;;3.40;;
5867;SDS011;2960;49.142;7.768;2024-01-15T10:14:09;11.20;;;3.27;;
5867;SDS011;2960;49.142;7.768;2024-01-15T10:16:37;11.20;;;3.90;;
5867;SDS011;2960;49.142;7.768;2024-01-15T10:19:04;10.80;;;3.90;;
5867;SDS011;2960;49.142;7.768;2024-01-15T10:21:32;11.07;;;4.07;;
5867;SDS011;2960;49.142;7.768;2024-01-15T10:24:00;12.87;;;3.03;;
5867;SDS011;2960;49.142;7.768;2024-01-15T10:26:30;10.90;;;3.27;;
5867;SDS011;2960;49.142;7.768;2024-01-15T10:28:58;11.60;;;3.77;;
5867;SDS011;2960;49.142;7.768;2024-01-15T10:31:26;10.10;;;3.30;;
5867;SDS011;2960;49.142;7.768;2024-01-15T10:33:53;10.20;;;3.07;;
5867;SDS011;2960;49.142;7.768;2024-01-15T10:36:22;10.40;;;3.30;;
5867;SDS011;2960;49.142;7.768;2024-01-15T10:38:49;12.90;;;3.43;;
5867;SDS011;2960;49.142;7.768;2024-01-15T10:41:16;11.13;;;4.00;;
5867;SDS011;2960;49.142;7.768;2024-01-15T10:43:45;10.87;;;3.40;;
5867;SDS011;2960;49.142;7.768;2024-01-15T10:46:12;10.63;;;3.50;;
5867;SDS011;2960;49.142;7.768;2024-01-15T10:48:42;9.10;;;2.70;;
5867;SDS011;2960;49.142;7.768;2024-01-15T10:51:10;9.73;;;3.00;;
5867;SDS011;2960;49.142;7.768;2024-01-15T10:53:38;9.17;;;3.30;;
5867;SDS011;2960;49.142;7.768;2024-01-15T10:56:06;10.53;;;3.47;;
5867;SDS011;2960;49.142;7.768;2024-01-15T10:58:34;8.97;;;2.80;;
5867;SDS011;2960;49.142;7.768;2024-01-15T11:01:05;10.50;;;3.23;;
5867;SDS011;2960;49.142;7.768;2024-01-15T11:03:33;10.30;;;3.37;;
5867;SDS011;2960;49.142;7.768;2024-01-15T11:06:01;8.97;;;2.80;;
5867;SDS011;2960;49.142;7.768;2024-01-15T11:08:29;10.70;;;3.60;;
5867;SDS011;2960;49.142;7.768;2024-01-15T11:10:57;9.77;;;3.20;;
5867;SDS011;2960;49.142;7.768;2024-01-15T11:13:39;10.00;;;3.30;;
5867;SDS011;2960;49.142;7.768;2024-01-15T11:16:10;9.47;;;2.97;;
5867;SDS011;2960;49.142;7.768;2024-01-15T11:18:45;10.23;;;3.40;;
5867;SDS011;2960;49.142;7.768;2024-01-15T11:21:31;9.10;;;2.80;;
5867;SDS011;2960;49.142;7.768;2024-01-15T11:23:59;9.67;;;2.97;;
5867;SDS011;2960;49.142;7.768;2024-01-15T11:26:34;10.53;;;3.33;;
5867;SDS011;2960;49.142;7.768;2024-01-15T11:29:04;9.60;;;2.50;;
5867;SDS011;2960;49.142;7.768;2024-01-15T11:34:52;9.37;;;2.60;;
5867;SDS011;2960;49.142;7.768;2024-01-15T11:37:24;8.77;;;2.80;;
5867;SDS011;2960;49.142;7.768;2024-01-15T11:39:55;9.40;;;2.70;;
5867;SDS011;2960;49.142;7.768;2024-01-15T11:42:28;9.37;;;3.10;;
5867;SDS011;2960;49.142;7.768;2024-01-15T11:44:56;9.60;;;3.10;;
5867;SDS011;2960;49.142;7.768;2024-01-15T11:50:35;9.13;;;2.97;;
5867;SDS011;2960;49.142;7.768;2024-01-15T11:53:25;9.37;;;3.10;;
5867;SDS011;2960;49.142;7.768;2024-01-15T11:56:01;10.10;;;3.17;;
5867;SDS011;2960;49.142;7.768;2024-01-15T11:58:29;10.13;;;3.10;;
5867;SDS011;2960;49.142;7.768;2024-01-15T12:00:57;9.50;;;2.97;;
5867;SDS011;2960;49.142;7.768;2024-01-15T12:03:26;10.10;;;3.00;;
5867;SDS011;2960;49.142;7.768;2024-01-15T12:05:53;11.00;;;3.53;;
5867;SDS011;2960;49.142;7.768;2024-01-15T12:08:21;9.03;;;2.87;;
5867;SDS011;2960;49.142;7.768;2024-01-15T12:10:48;10.67;;;3.53;;
5867;SDS011;2960;49.142;7.768;2024-01-15T12:13:16;9.93;;;2.80;;
5867;SDS011;2960;49.142;7.768;2024-01-15T12:15:44;9.00;;;3.00;;
5867;SDS011;2960;49.142;7.768;2024-01-15T12:18:13;10.10;;;3.20;;
5867;SDS011;2960;49.142;7.768;2024-01-15T12:20:44;10.20;;;3.20;;
5867;SDS011;2960;49.142;7.768;2024-01-15T12:23:13;11.20;;;3.17;;
5867;SDS011;2960;49.142;7.768;2024-01-15T12:25:40;10.73;;;3.83;;
5867;SDS011;2960;49.142;7.768;2024-01-15T12:28:08;9.47;;;2.87;;
5867;SDS011;2960;49.142;7.768;2024-01-15T12:30:35;8.80;;;2.90;;
5867;SDS011;2960;49.142;7.768;2024-01-15T12:33:03;9.17;;;2.90;;
5867;SDS011;2960;49.142;7.768;2024-01-15T12:35:34;10.43;;;3.20;;
5867;SDS011;2960;49.142;7.768;2024-01-15T12:38:05;10.80;;;3.00;;
5867;SDS011;2960;49.142;7.768;2024-01-15T12:40:32;9.30;;;3.30;;
5867;SDS011;2960;49.142;7.768;2024-01-15T12:43:00;11.23;;;3.63;;
5867;SDS011;2960;49.142;7.768;2024-01-15T12:45:27;9.40;;;3.37;;
5867;SDS011;2960;49.142;7.768;2024-01-15T12:47:56;8.17;;;3.00;;
5867;SDS011;2960;49.142;7.768;2024-01-15T12:50:24;9.27;;;3.17;;
5867;SDS011;2960;49.142;7.768;2024-01-15T12:52:52;10.60;;;3.27;;
5867;SDS011;2960;49.142;7.768;2024-01-15T12:55:20;10.50;;;3.43;;
5867;SDS011;2960;49.142;7.768;2024-01-15T12:57:48;10.13;;;3.43;;
5867;SDS011;2960;49.142;7.768;2024-01-15T13:00:17;9.63;;;3.03;;
5867;SDS011;2960;49.142;7.768;2024-01-15T13:02:44;9.47;;;3.30;;
5867;SDS011;2960;49.142;7.768;2024-01-15T13:05:12;9.50;;;3.27;;
5867;SDS011;2960;49.142;7.768;2024-01-15T13:07:39;9.40;;;3.00;;
5867;SDS011;2960;49.142;7.768;2024-01-15T13:10:06;9.60;;;3.40;;
5867;SDS011;2960;49.142;7.768;2024-01-15T13:12:36;10.63;;;3.50;;
5867;SDS011;2960;49.142;7.768;2024-01-15T13:15:04;10.20;;;3.50;;
5867;SDS011;2960;49.142;7.768;2024-01-15T13:17:36;10.80;;;3.60;;
5867;SDS011;2960;49.142;7.768;2024-01-15T13:20:05;11.73;;;3.77;;
5867;SDS011;2960;49.142;7.768;2024-01-15T13:22:33;9.63;;;3.13;;
5867;SDS011;2960;49.142;7.768;2024-01-15T13:25:01;9.97;;;2.60;;
5867;SDS011;2960;49.142;7.768;2024-01-15T13:27:29;11.40;;;3.80;;
5867;SDS011;2960;49.142;7.768;2024-01-15T13:29:57;11.33;;;3.83;;
5867;SDS011;2960;49.142;7.768;2024-01-15T13:32:25;8.13;;;2.80;;
5867;SDS011;2960;49.142;7.768;2024-01-15T13:34:55;10.20;;;3.23;;
5867;SDS011;2960;49.142;7.768;2024-01-15T13:37:22;10.73;;;3.90;;
5867;SDS011;2960;49.142;7.768;2024-01-15T13:39:49;11.60;;;3.50;;
5867;SDS011;2960;49.142;7.768;2024-01-15T13:42:18;11.13;;;3.40;;
5867;SDS011;2960;49.142;7.768;2024-01-15T13:44:47;11.93;;;3.90;;
5867;SDS011;2960;49.142;7.768;2024-01-15T13:47:15;10.97;;;3.57;;
5867;SDS011;2960;49.142;7.768;2024-01-15T13:49:45;9.60;;;3.17;;
5867;SDS011;2960;49.142;7.768;2024-01-15T13:52:13;9.87;;;3.20;;
5867;SDS011;2960;49.142;7.768;2024-01-15T13:54:43;11.33;;;3.47;;
5867;SDS011;2960;49.142;7.768;2024-01-15T13:57:10;9.30;;;3.53;;
5867;SDS011;2960;49.142;7.768;2024-01-15T13:59:37;9.17;;;3.30;;
5867;SDS011;2960;49.142;7.768;2024-01-15T14:02:05;10.87;;;3.57;;
5867;SDS011;2960;49.142;7.768;2024-01-15T14:04:33;11.60;;;3.50;;
5867;SDS011;2960;49.142;7.768;2024-01-15T14:07:00;10.00;;;3.30;;
5867;SDS011;2960;49.142;7.768;2024-01-15T14:09:28;12.63;;;3.77;;
5867;SDS011;2960;49.142;7.768;2024-01-15T14:11:56;9.30;;;3.23;;
5867;SDS011;2960;49.142;7.768;2024-01-15T14:14:26;10.87;;;3.70;;
5867;SDS011;2960;49.142;7.768;2024-01-15T14:16:53;10.10;;;3.50;;
5867;SDS011;2960;49.142;7.768;2024-01-15T14:19:21;11.57;;;3.53;;
5867;SDS011;2960;49.142;7.768;2024-01-15T14:21:49;10.93;;;3.30;;
5867;SDS011;2960;49.142;7.768;2024-01-15T14:24:16;9.83;;;3.33;;
5867;SDS011;2960;49.142;7.768;2024-01-15T14:26:43;11.60;;;3.40;;
5867;SDS011;2960;49.142;7.768;2024-01-15T14:29:11;10.07;;;3.37;;
5867;SDS011;2960;49.142;7.768;2024-01-15T14:31:39;10.77;;;3.30;;
5867;SDS011;2960;49.142;7.768;2024-01-15T14:34:06;10.47;;;3.20;;
5867;SDS011;2960;49.142;7.768;2024-01-15T14:36:34;10.00;;;2.93;;
5867;SDS011;2960;49.142;7.768;2024-01-15T14:39:02;9.70;;;3.37;;
5867;SDS011;2960;49.142;7.768;2024-01-15T14:41:29;10.83;;;3.63;;
5867;SDS011;2960;49.142;7.768;2024-01-15T14:43:57;9.10;;;3.20;;
5867;SDS011;2960;49.142;7.768;2024-01-15T14:46:24;8.63;;;2.90;;
5867;SDS011;2960;49.142;7.768;2024-01-15T14:48:52;9.30;;;3.20;;
5867;SDS011;2960;49.142;7.768;2024-01-15T14:51:19;9.57;;;3.00;;
5867;SDS011;2960;49.142;7.768;2024-01-15T14:53:46;8.40;;;2.80;;
5867;SDS011;2960;49.142;7.768;2024-01-15T14:56:15;8.23;;;2.70;;
5867;SDS011;2960;49.142;7.768;2024-01-15T14:58:42;8.53;;;2.87;;
5867;SDS011;2960;49.142;7.768;2024-01-15T15:01:09;8.87;;;2.77;;
5867;SDS011;2960;49.142;7.768;2024-01-15T15:03:38;8.53;;;2.50;;
5867;SDS011;2960;49.142;7.768;2024-01-15T15:06:06;8.47;;;2.60;;
5867;SDS011;2960;49.142;7.768;2024-01-15T15:08:33;12.37;;;3.20;;
5867;SDS011;2960;49.142;7.768;2024-01-15T15:11:00;11.67;;;2.90;;
5867;SDS011;2960;49.142;7.768;2024-01-15T15:13:31;8.90;;;2.73;;